createdAt,value
2023-02-21T00:02:29.141Z,100452.66
2023-02-21T00:05:15.049Z,100456.91
2023-02-21T00:08:01.436Z,100458.59
2023-02-21T00:10:48.877Z,100458.59
2023-02-21T00:13:35.107Z,100454.34
2023-02-21T00:16:21.362Z,100451.66
2023-02-21T00:19:07.390Z,100449.06
2023-02-21T00:21:53.497Z,100452.53
2023-02-21T00:24:39.635Z,100458.59
2023-02-21T00:27:26.708Z,100462.09
2023-02-21T00:30:13.099Z,100462.88
2023-02-21T00:32:59.221Z,100466.25
2023-02-21T00:35:45.278Z,100461.19
2023-02-21T00:38:31.290Z,100455.03
2023-02-21T00:41:17.800Z,100461.97
2023-02-21T00:44:05.143Z,100450.75
2023-02-21T00:46:51.045Z,100446.38
2023-02-21T00:49:37.043Z,100454.94
2023-02-21T00:52:24.003Z,100456.72
2023-02-21T00:55:10.151Z,100457.59
2023-02-21T00:57:56.161Z,100454.13
2023-02-21T01:00:44.802Z,100454.22
2023-02-21T01:03:30.955Z,100450.06
2023-02-21T01:06:16.987Z,100438.75
2023-02-21T01:09:05.068Z,100445.59
2023-02-21T01:11:52.042Z,100442.03
2023-02-21T01:14:38.033Z,100434.09
2023-02-21T01:17:25.594Z,100436.69
2023-02-21T01:20:11.833Z,100433.31
2023-02-21T01:22:57.834Z,100431.53
2023-02-21T01:25:43.827Z,100430.72
2023-02-21T01:28:29.958Z,100436.78
2023-02-21T01:31:16.501Z,100430.72
2023-02-21T01:34:04.805Z,100425.56
2023-02-21T01:36:50.930Z,100430.81
2023-02-21T01:39:36.985Z,100428.25
2023-02-21T01:42:22.892Z,100423.94
2023-02-21T01:45:53.500Z,100431.78
2023-02-21T01:48:41.661Z,100424.78
2023-02-21T01:51:31.264Z,100429.03
2023-02-21T01:54:18.501Z,100418.72
2023-02-21T01:57:04.882Z,100428.16
2023-02-21T01:59:51.362Z,100420.41
2023-02-21T02:02:44.224Z,100421.28
2023-02-21T02:05:32.670Z,100414.44
2023-02-21T02:08:19.938Z,100421.34
2023-02-21T02:11:18.925Z,100419.66
2023-02-21T02:14:07.252Z,100420.56
2023-02-21T02:16:45.928Z,100415.41
2023-02-21T02:20:03.021Z,100419.66
2023-02-21T02:22:52.036Z,100418.78
2023-02-21T02:25:42.053Z,100411.91
2023-02-21T02:28:33.057Z,100416.19
2023-02-21T02:31:38.142Z,100423.16
2023-02-21T02:34:45.129Z,100419.59
2023-02-21T02:37:23.998Z,100424.94
2023-02-21T02:40:03.366Z,100414.59
2023-02-21T02:42:50.300Z,100412.13
2023-02-21T02:45:27.184Z,100408.75
2023-02-21T02:48:02.124Z,100404.47
2023-02-21T02:50:34.413Z,100411.31
2023-02-21T02:53:05.322Z,100399.31
2023-02-21T02:55:47.237Z,100401.06
2023-02-21T02:58:17.026Z,100401.06
2023-02-21T03:00:58.938Z,100391.72
2023-02-21T03:03:53.298Z,100390.81
2023-02-21T03:06:35.230Z,100393.31
2023-02-21T03:09:12.394Z,100394.28
2023-02-21T03:11:53.228Z,100399.47
2023-02-21T03:14:27.618Z,100391.72
2023-02-21T03:17:01.404Z,100398.56
2023-02-21T03:19:34.707Z,100397.66
2023-02-21T03:22:09.183Z,100398.47
2023-02-21T03:24:42.053Z,100398.41
2023-02-21T03:27:12.041Z,100400.09
2023-02-21T03:29:55.405Z,100404.47
2023-02-21T03:32:27.391Z,100407.06
2023-02-21T03:34:57.295Z,100398.41
2023-02-21T03:37:34.543Z,100394.94
2023-02-21T03:40:04.128Z,100393.94
2023-02-21T03:42:35.164Z,100389.56
2023-02-21T03:45:03.911Z,100392.16
2023-02-21T03:47:33.281Z,100390.47
2023-02-21T03:50:01.707Z,100399.00
2023-02-21T03:52:31.847Z,100390.56
2023-02-21T03:55:00.620Z,100387.09
2023-02-21T03:57:31.469Z,100381.03
2023-02-21T04:00:00.158Z,100387.19
2023-02-21T04:02:29.560Z,100395.72
2023-02-21T04:04:58.349Z,100393.25
2023-02-21T04:07:27.531Z,100388.97
2023-02-21T04:09:57.487Z,100393.31
2023-02-21T04:12:37.697Z,100401.88
2023-02-21T04:15:08.069Z,100395.88
2023-02-21T04:17:36.587Z,100405.31
2023-02-21T04:20:08.155Z,100406.22
2023-02-21T04:22:40.581Z,100406.22
2023-02-21T04:25:10.544Z,100392.50
2023-02-21T04:27:48.755Z,100395.09
2023-02-21T04:30:17.721Z,100395.19
2023-02-21T04:32:46.299Z,100389.03
2023-02-21T04:35:16.356Z,100382.19
2023-02-21T04:37:46.547Z,100391.63
2023-02-21T04:40:17.118Z,100392.50
2023-02-21T04:42:45.836Z,100385.56
2023-02-21T04:45:14.264Z,100389.94
2023-02-21T04:47:42.734Z,100380.38
2023-02-21T04:50:11.223Z,100379.69
2023-02-21T04:52:40.939Z,100382.28
2023-02-21T04:55:10.276Z,100369.38
2023-02-21T04:57:40.530Z,100372.03
2023-02-21T05:00:11.260Z,100371.06
2023-02-21T05:02:44.464Z,100372.84
2023-02-21T05:05:13.966Z,100367.47
2023-02-21T05:07:43.530Z,100370.06
2023-02-21T05:10:12.599Z,100375.31
2023-02-21T05:12:42.750Z,100374.53
2023-02-21T05:15:13.767Z,100374.53
2023-02-21T05:17:42.465Z,100381.38
2023-02-21T05:20:12.633Z,100393.50
2023-02-21T05:22:42.729Z,100387.53
2023-02-21T05:25:17.281Z,100388.44
2023-02-21T05:27:47.736Z,100387.53
2023-02-21T05:30:18.813Z,100394.44
2023-02-21T05:32:47.521Z,100392.69
2023-02-21T05:35:18.510Z,100393.66
2023-02-21T05:37:46.925Z,100387.53
2023-02-21T05:40:19.502Z,100389.28
2023-02-21T05:42:49.345Z,100387.69
2023-02-21T05:45:17.815Z,100394.66
2023-02-21T05:47:46.207Z,100385.22
2023-02-21T05:50:15.699Z,100394.75
2023-02-21T05:52:44.113Z,100393.06
2023-02-21T05:55:13.097Z,100395.69
2023-02-21T05:57:41.733Z,100387.94
2023-02-21T06:00:17.915Z,100392.22
2023-02-21T06:02:46.365Z,100389.47
2023-02-21T06:05:15.386Z,100386.09
2023-02-21T06:07:43.844Z,100387.00
2023-02-21T06:10:12.288Z,100393.06
2023-02-21T06:12:40.734Z,100389.63
2023-02-21T06:15:13.142Z,100384.47
2023-02-21T06:17:43.397Z,100383.63
2023-02-21T06:20:16.708Z,100373.44
2023-02-21T06:22:45.404Z,100368.97
2023-02-21T06:25:13.742Z,100369.06
2023-02-21T06:27:43.786Z,100372.53
2023-02-21T06:30:15.483Z,100375.94
2023-02-21T06:32:44.229Z,100378.50
2023-02-21T06:35:13.566Z,100370.75
2023-02-21T06:37:42.681Z,100372.44
2023-02-21T06:40:12.104Z,100377.63
2023-02-21T06:42:40.539Z,100375.03
2023-02-21T06:45:09.791Z,100376.72
2023-02-21T06:47:39.786Z,100376.72
2023-02-21T06:50:10.305Z,100374.16
2023-02-21T06:52:39.378Z,100375.03
2023-02-21T06:55:09.046Z,100383.69
2023-02-21T06:57:37.442Z,100377.56
2023-02-21T07:00:07.686Z,100382.72
2023-02-21T07:02:36.190Z,100374.16
2023-02-21T07:05:07.067Z,100374.25
2023-02-21T07:07:35.581Z,100382.88
2023-02-21T07:10:04.486Z,100377.72
2023-02-21T07:12:32.859Z,100378.50
2023-02-21T07:15:01.293Z,100374.16
2023-02-21T07:17:30.190Z,100380.13
2023-02-21T07:19:58.641Z,100380.03
2023-02-21T07:22:28.429Z,100379.16
2023-02-21T07:24:57.945Z,100373.97
2023-02-21T07:27:26.455Z,100374.78
2023-02-21T07:29:54.908Z,100374.78
2023-02-21T07:34:51.211Z,100380.94
2023-02-21T07:37:19.807Z,100387.88
2023-02-21T07:39:49.720Z,100387.88
2023-02-21T07:42:18.112Z,100387.00
2023-02-21T07:44:47.975Z,100383.53
2023-02-21T07:47:16.512Z,100383.53
2023-02-21T07:49:44.927Z,100377.56
2023-02-21T07:52:13.292Z,100389.56
2023-02-21T07:54:41.721Z,100382.72
2023-02-21T07:57:11.604Z,100386.19
2023-02-21T07:59:40.236Z,100386.09
2023-02-21T08:02:08.716Z,100374.88
2023-02-21T08:04:37.210Z,100392.06
2023-02-21T08:07:07.226Z,100392.97
2023-02-21T08:09:37.362Z,100405.88
2023-02-21T08:12:06.713Z,100401.59
2023-02-21T08:14:36.548Z,100405.88
2023-02-21T08:17:04.836Z,100406.78
2023-02-21T08:19:33.173Z,100404.97
2023-02-21T08:22:01.708Z,100409.25
2023-02-21T08:24:30.163Z,100399.81
2023-02-21T08:26:58.579Z,100400.63
2023-02-21T08:29:27.033Z,100397.03
2023-02-21T08:31:57.053Z,100392.84
2023-02-21T08:34:25.873Z,100400.63
2023-02-21T08:36:54.537Z,100397.13
2023-02-21T08:39:22.985Z,100398.03
2023-02-21T08:41:52.476Z,100389.28
2023-02-21T08:44:22.721Z,100396.09
2023-02-21T08:46:51.226Z,100397.66
2023-02-21T08:49:21.037Z,100392.50
2023-02-21T08:51:49.528Z,100399.31
2023-02-21T08:54:19.372Z,100397.50
2023-02-21T08:56:48.900Z,100398.41
2023-02-21T08:59:17.583Z,100393.25
2023-02-21T09:01:46.223Z,100387.97
2023-02-21T09:04:15.311Z,100401.06
2023-02-21T09:06:45.709Z,100403.63
2023-02-21T09:09:14.251Z,100398.47
2023-02-21T09:11:47.080Z,100397.66
2023-02-21T09:14:15.900Z,100387.34
2023-02-21T09:16:47.685Z,100391.72
2023-02-21T09:19:16.698Z,100382.19
2023-02-21T09:21:55.348Z,100395.09
2023-02-21T09:24:25.321Z,100395.88
2023-02-21T09:26:55.389Z,100393.41
2023-02-21T09:29:26.543Z,100392.50
2023-02-21T09:31:56.440Z,100404.53
2023-02-21T09:34:25.638Z,100394.13
2023-02-21T09:36:55.982Z,100402.75
2023-02-21T09:39:25.460Z,100398.31
2023-02-21T09:41:57.371Z,100398.31
2023-02-21T09:44:30.479Z,100397.50
2023-02-21T09:47:02.844Z,100401.88
2023-02-21T09:49:35.492Z,100403.63
2023-02-21T09:52:06.306Z,100392.50
2023-02-21T09:54:38.438Z,100393.41
2023-02-21T09:57:13.591Z,100403.03
2023-02-21T09:59:42.755Z,100395.28
2023-02-21T10:02:31.029Z,100396.25
2023-02-21T10:05:10.210Z,100396.34
2023-02-21T10:07:48.812Z,100389.47
2023-02-21T10:10:21.634Z,100398.03
2023-02-21T10:12:58.170Z,100391.97
2023-02-21T10:15:42.109Z,100391.06
2023-02-21T10:18:26.570Z,100397.22
2023-02-21T10:20:59.557Z,100401.50
2023-02-21T10:23:36.617Z,100396.44
2023-02-21T10:26:09.447Z,100396.44
2023-02-21T10:28:38.762Z,100392.97
2023-02-21T10:31:12.177Z,100395.53
2023-02-21T10:33:41.144Z,100399.91
2023-02-21T10:36:15.169Z,100398.22
2023-02-21T10:38:55.893Z,100399.97
2023-02-21T10:41:25.405Z,100391.44
2023-02-21T10:44:01.341Z,100396.78
2023-02-21T10:46:36.991Z,100402.91
2023-02-21T10:49:23.318Z,100395.16
2023-02-21T10:52:07.997Z,100398.72
2023-02-21T10:54:38.234Z,100395.34
2023-02-21T10:57:09.998Z,100397.13
2023-02-21T10:59:42.578Z,100397.19
2023-02-21T11:02:31.742Z,100402.47
2023-02-21T11:05:13.486Z,100400.00
2023-02-21T11:07:43.927Z,100400.91
2023-02-21T11:10:32.180Z,100399.28
2023-02-21T11:13:15.743Z,100401.78
2023-02-21T11:15:44.840Z,100398.31
2023-02-21T11:18:20.500Z,100399.28
2023-02-21T11:20:49.384Z,100399.28
2023-02-21T11:23:30.652Z,100397.69
2023-02-21T11:26:09.394Z,100395.88
2023-02-21T11:28:40.166Z,100392.50
2023-02-21T11:31:17.434Z,100382.16
2023-02-21T11:33:58.263Z,100383.97
2023-02-21T11:36:30.853Z,100374.53
2023-02-21T11:39:07.347Z,100376.31
2023-02-21T11:41:49.274Z,100370.31
2023-02-21T11:44:30.882Z,100375.56
2023-02-21T11:47:15.197Z,100369.59
2023-02-21T11:49:53.958Z,100371.47
2023-02-21T11:52:27.688Z,100372.44
2023-02-21T11:54:56.535Z,100368.94
2023-02-21T11:57:36.789Z,100363.88
2023-02-21T12:00:20.746Z,100360.59
2023-02-21T12:03:04.721Z,100359.84
2023-02-21T12:05:47.117Z,100355.66
2023-02-21T12:08:42.476Z,100356.63
2023-02-21T12:11:36.704Z,100361.88
2023-02-21T12:14:20.817Z,100347.34
2023-02-21T12:17:07.070Z,100348.25
2023-02-21T12:19:53.192Z,100344.03
2023-02-21T12:22:42.830Z,100341.53
2023-02-21T12:25:23.678Z,100335.56
2023-02-21T12:28:01.449Z,100342.69
2023-02-21T12:31:04.900Z,100340.09
2023-02-21T12:33:45.575Z,100334.22
2023-02-21T12:36:37.074Z,100316.81
2023-02-21T12:39:22.472Z,100326.47
2023-02-21T12:42:24.546Z,100319.75
2023-02-21T12:45:07.075Z,100324.09
2023-02-21T12:47:54.739Z,100307.81
2023-02-21T12:50:27.979Z,100307.00
2023-02-21T12:53:03.201Z,100306.25
2023-02-21T12:55:37.278Z,100296.81
2023-02-21T12:58:18.464Z,100298.59
2023-02-21T13:00:54.209Z,100302.97
2023-02-21T13:03:52.858Z,100299.47
2023-02-21T13:06:28.202Z,100296.09
2023-02-21T13:09:11.555Z,100296.97
2023-02-21T13:11:46.507Z,100291.97
2023-02-21T13:14:20.509Z,100297.22
2023-02-21T13:16:51.027Z,100286.88
2023-02-21T13:19:22.291Z,100281.75
2023-02-21T13:22:21.231Z,100284.53
2023-02-21T13:25:22.458Z,100281.03
2023-02-21T13:27:58.699Z,100273.38
2023-02-21T13:30:39.835Z,100268.19
2023-02-21T13:33:08.801Z,100259.56
2023-02-21T13:35:40.888Z,100270.03
2023-02-21T13:38:13.265Z,100263.19
2023-02-21T13:40:51.009Z,100260.59
2023-02-21T13:43:25.988Z,100258.00
2023-02-21T13:45:54.780Z,100251.94
2023-02-21T13:48:30.846Z,100252.91
2023-02-21T13:51:01.967Z,100256.41
2023-02-21T13:53:34.269Z,100253.81
2023-02-21T13:56:47.671Z,100254.63
2023-02-21T13:59:37.524Z,100247.66
2023-02-21T14:02:24.881Z,100243.94
2023-02-21T14:05:14.301Z,100250.72
2023-02-21T14:07:58.473Z,100248.13
2023-02-21T14:10:45.303Z,100246.41
2023-02-21T14:13:25.277Z,100247.19
2023-02-21T14:16:01.417Z,100240.94
2023-02-21T14:18:33.511Z,100244.44
2023-02-21T14:21:03.308Z,100240.94
2023-02-21T14:23:44.008Z,100238.38
2023-02-21T14:26:40.647Z,100240.09
2023-02-21T14:29:31.222Z,100227.97
2023-02-21T14:32:32.870Z,100232.25
2023-02-21T14:35:02.347Z,100232.16
2023-02-21T14:37:36.954Z,100231.34
2023-02-21T14:40:28.565Z,100224.50
2023-02-21T14:43:13.370Z,100225.38
2023-02-21T14:46:04.367Z,100227.16
2023-02-21T14:49:00.269Z,100232.47
2023-02-21T14:52:10.096Z,100229.91
2023-02-21T14:55:24.270Z,100231.69
2023-02-21T14:58:40.558Z,100216.88
2023-02-21T15:01:25.644Z,100220.25
2023-02-21T15:04:06.497Z,100226.31
2023-02-21T15:06:36.036Z,100221.34
2023-02-21T15:09:14.208Z,100219.63
2023-02-21T15:11:45.887Z,100226.59
2023-02-21T15:14:25.814Z,100222.28
2023-02-21T15:16:58.633Z,100224.88
2023-02-21T15:19:31.850Z,100217.09
2023-02-21T15:22:26.137Z,100212.78
2023-02-21T15:25:14.690Z,100214.38
2023-02-21T15:28:22.797Z,100211.56
2023-02-21T15:31:02.049Z,100209.78
2023-02-21T15:33:34.780Z,100207.06
2023-02-21T15:36:07.338Z,100213.91
2023-02-21T15:38:41.610Z,100207.09
2023-02-21T15:41:16.563Z,100207.09
2023-02-21T15:43:51.361Z,100208.88
2023-02-21T15:46:24.214Z,100208.88
2023-02-21T15:48:54.231Z,100208.09
2023-02-21T15:51:23.855Z,100208.97
2023-02-21T15:54:24.489Z,100204.69
2023-02-21T15:57:16.510Z,100202.16
2023-02-21T15:59:46.248Z,100194.41
2023-02-21T16:02:22.602Z,100190.13
2023-02-21T16:04:52.723Z,100188.53
2023-02-21T16:07:33.936Z,100190.31
2023-02-21T16:10:07.677Z,100187.53
2023-02-21T16:12:40.272Z,100187.50
2023-02-21T16:15:24.677Z,100190.88
2023-02-21T16:18:00.267Z,100190.06
2023-02-21T16:20:32.100Z,100183.03
2023-02-21T16:23:27.681Z,100192.56
2023-02-21T16:25:59.575Z,100193.38
2023-02-21T16:28:28.606Z,100184.81
2023-02-21T16:31:01.435Z,100183.13
2023-02-21T16:33:30.983Z,100177.94
2023-02-21T16:36:03.314Z,100183.22
2023-02-21T16:38:32.266Z,100184.97
2023-02-21T16:41:00.761Z,100182.38
2023-02-21T16:43:30.667Z,100183.25
2023-02-21T16:46:00.723Z,100185.13
2023-02-21T16:48:33.483Z,100184.06
2023-02-21T16:51:04.777Z,100177.88
2023-02-21T16:53:33.596Z,100182.16
2023-02-21T16:56:03.776Z,100183.03
2023-02-21T16:58:36.617Z,100189.00
2023-02-21T17:01:11.925Z,100181.25
2023-02-21T17:03:42.294Z,100178.63
2023-02-21T17:06:25.548Z,100189.00
2023-02-21T17:08:54.363Z,100191.59
2023-02-21T17:11:22.884Z,100192.56
2023-02-21T17:13:51.307Z,100187.41
2023-02-21T17:16:21.260Z,100197.88
2023-02-21T17:18:49.756Z,100191.09
2023-02-21T17:21:18.640Z,100189.50
2023-02-21T17:23:47.549Z,100189.56
2023-02-21T17:26:18.061Z,100194.91
2023-02-21T17:28:46.451Z,100189.81
2023-02-21T17:31:18.919Z,100193.25
2023-02-21T17:33:49.465Z,100193.34
2023-02-21T17:36:19.133Z,100191.66
2023-02-21T17:38:48.196Z,100189.97
2023-02-21T17:41:17.081Z,100186.56
2023-02-21T17:43:45.786Z,100201.28
2023-02-21T17:46:15.957Z,100193.53
2023-02-21T17:48:45.448Z,100198.75
2023-02-21T17:51:22.764Z,100196.25
2023-02-21T17:53:51.923Z,100191.06
2023-02-21T17:56:24.371Z,100196.25
2023-02-21T17:58:55.121Z,100197.13
2023-02-21T18:01:23.568Z,100200.63
2023-02-21T18:03:52.555Z,100200.53
2023-02-21T18:06:22.928Z,100207.47
2023-02-21T18:08:51.358Z,100191.97
2023-02-21T18:11:20.151Z,100197.13
2023-02-21T18:13:48.796Z,100198.03
2023-02-21T18:16:17.356Z,100191.06
2023-02-21T18:18:46.303Z,100198.03
2023-02-21T18:21:16.941Z,100195.44
2023-02-21T18:23:47.660Z,100189.38
2023-02-21T18:26:16.506Z,100190.19
2023-02-21T18:28:45.312Z,100193.75
2023-02-21T18:31:18.049Z,100193.75
2023-02-21T18:33:46.828Z,100200.63
2023-02-21T18:36:15.527Z,100192.06
2023-02-21T18:38:43.889Z,100186.88
2023-02-21T18:41:15.873Z,100191.25
2023-02-21T18:43:45.056Z,100182.44
2023-02-21T18:46:17.573Z,100194.63
2023-02-21T18:48:49.072Z,100189.47
2023-02-21T18:51:20.042Z,100194.63
2023-02-21T18:53:49.800Z,100186.88
2023-02-21T18:56:21.414Z,100178.22
2023-02-21T18:58:50.424Z,100174.75
2023-02-21T19:01:21.727Z,100171.28
2023-02-21T19:03:51.803Z,100172.16
2023-02-21T19:06:22.666Z,100173.94
2023-02-21T19:08:51.303Z,100172.16
2023-02-21T19:11:21.181Z,100156.66
2023-02-21T19:13:50.429Z,100163.50
2023-02-21T19:16:20.626Z,100160.94
2023-02-21T19:18:51.364Z,100164.41
2023-02-21T19:21:19.771Z,100154.88
2023-02-21T19:23:48.297Z,100158.25
2023-02-21T19:26:16.924Z,100159.09
2023-02-21T19:28:47.510Z,100156.50
2023-02-21T19:31:19.991Z,100146.16
2023-02-21T19:33:48.800Z,100151.34
2023-02-21T19:36:17.494Z,100150.44
2023-02-21T19:38:45.883Z,100150.44
2023-02-21T19:41:14.540Z,100151.34
2023-02-21T19:43:43.412Z,100154.72
2023-02-21T19:46:22.746Z,100154.72
2023-02-21T19:48:51.620Z,100152.94
2023-02-21T19:51:23.861Z,100146.00
2023-02-21T19:53:52.424Z,100156.34
2023-02-21T19:56:21.264Z,100159.72
2023-02-21T19:58:49.940Z,100157.94
2023-02-21T20:01:19.026Z,100148.50
2023-02-21T20:03:50.720Z,100145.84
2023-02-21T20:06:20.252Z,100157.94
2023-02-21T20:08:48.905Z,100157.94
2023-02-21T20:11:18.043Z,100148.44
2023-02-21T20:13:46.627Z,100160.53
2023-02-21T20:16:17.143Z,100148.44
2023-02-21T20:18:45.798Z,100145.84
2023-02-21T20:21:22.139Z,100143.28
2023-02-21T20:23:51.724Z,100144.88
2023-02-21T20:26:23.238Z,100152.63
2023-02-21T20:28:52.301Z,100141.41
2023-02-21T20:31:23.826Z,100140.50
2023-02-21T20:33:52.442Z,100140.50
2023-02-21T20:36:30.429Z,100140.50
2023-02-21T20:38:58.850Z,100137.91
2023-02-21T20:41:31.083Z,100137.84
2023-02-21T20:43:59.988Z,100136.94
2023-02-21T20:46:28.827Z,100132.66
2023-02-21T20:48:58.780Z,100137.84
2023-02-21T20:51:34.633Z,100137.03
2023-02-21T20:54:04.689Z,100130.06
2023-02-21T20:56:35.027Z,100133.56
2023-02-21T20:59:05.672Z,100134.44
2023-02-21T21:01:35.162Z,100130.03
2023-02-21T21:04:05.222Z,100130.03
2023-02-21T21:06:36.791Z,100126.59
2023-02-21T21:09:05.481Z,100123.97
2023-02-21T21:11:34.999Z,100128.25
2023-02-21T21:14:03.810Z,100110.94
2023-02-21T21:16:34.359Z,100119.59
2023-02-21T21:19:03.077Z,100111.84
2023-02-21T21:21:34.082Z,100108.38
2023-02-21T21:24:07.087Z,100108.38
2023-02-21T21:26:35.925Z,100112.72
2023-02-21T21:29:07.454Z,100114.44
2023-02-21T21:31:35.917Z,100100.53
2023-02-21T21:34:04.477Z,100102.22
2023-02-21T21:36:36.022Z,100090.97
2023-02-21T21:39:05.214Z,100096.09
2023-02-21T21:41:34.330Z,100092.72
2023-02-21T21:44:03.292Z,100092.72
2023-02-21T21:46:32.812Z,100095.31
2023-02-21T21:49:01.346Z,100088.34
2023-02-21T21:51:29.802Z,100091.81
2023-02-21T21:53:59.910Z,100084.06
2023-02-21T21:56:28.368Z,100077.19
2023-02-21T21:58:56.739Z,100073.72
2023-02-21T22:01:26.600Z,100072.03
2023-02-21T22:03:55.023Z,100072.84
2023-02-21T22:06:23.581Z,100071.13
2023-02-21T22:08:54.319Z,100062.53
2023-02-21T22:11:24.031Z,100059.91
2023-02-21T22:13:52.413Z,100059.00
2023-02-21T22:16:20.886Z,100053.03
2023-02-21T22:18:49.663Z,100060.78
2023-02-21T22:21:18.558Z,100056.44
2023-02-21T22:23:48.423Z,100055.44
2023-02-21T22:26:21.994Z,100065.78
2023-02-21T22:28:52.443Z,100057.16
2023-02-21T22:31:23.236Z,100063.22
2023-02-21T22:33:51.792Z,100057.16
2023-02-21T22:36:20.483Z,100056.22
2023-02-21T22:38:50.256Z,100061.44
2023-02-21T22:41:21.025Z,100055.38
2023-02-21T22:43:51.697Z,100054.50
2023-02-21T22:46:22.106Z,100054.50
2023-02-21T22:48:50.641Z,100053.53
2023-02-21T22:51:20.979Z,100057.03
2023-02-21T22:53:50.250Z,100050.06
2023-02-21T22:56:23.505Z,100043.91
2023-02-21T22:58:55.953Z,100042.13
2023-02-21T23:01:26.452Z,100044.72
2023-02-21T23:04:05.995Z,100038.69
2023-02-21T23:06:34.357Z,100035.13
2023-02-21T23:09:11.977Z,100026.50
2023-02-21T23:11:42.390Z,100020.53
2023-02-21T23:14:14.037Z,100022.31
2023-02-21T23:16:43.335Z,100011.06
2023-02-21T23:19:12.225Z,100010.19
2023-02-21T23:21:46.236Z,100003.22
2023-02-21T23:24:15.860Z,99998.94
2023-02-21T23:26:46.572Z,100001.44
2023-02-21T23:29:18.817Z,99994.50
2023-02-21T23:31:48.423Z,99998.78
2023-02-21T23:34:17.303Z,99997.94
2023-02-21T23:36:45.989Z,99995.25
2023-02-21T23:39:15.359Z,99993.56
2023-02-21T23:41:48.909Z,99996.16
2023-02-21T23:44:21.969Z,99993.47
2023-02-21T23:46:50.405Z,99988.22
2023-02-21T23:49:18.695Z,99988.19
2023-02-21T23:51:47.241Z,99981.94
2023-02-21T23:54:17.998Z,99987.13
2023-02-21T23:56:49.156Z,99974.09
2023-02-21T23:59:19.372Z,99984.41
